Time;durP1;ratioP1;P1;durP2;ratioP2;P2;SDS_P1;SDS_P2;PMS_P1;PMS_P2;Temp;Humidity;BMP_temperature;BMP_pressure;BME280_temperature;BME280_humidity;BME280_pressure;Samples;Min_cycle;Max_cycle;Signal;HPM_P1;HPM_P2
2022/08/13 00:00:12;;;;;;;3.90;2.53;;;21.20;69.10;;;;;;5034716;28;20667;-63
2022/08/13 00:02:42;;;;;;;5.77;2.73;;;21.10;69.60;;;;;;5019181;28;20205;-61
2022/08/13 00:05:09;;;;;;;3.67;2.40;;;21.10;69.90;;;;;;5022476;28;20322;-62
2022/08/13 00:07:35;;;;;;;7.88;3.40;;;21.10;70.10;;;;;;5013975;28;20663;-61
2022/08/13 00:10:03;;;;;;;3.40;2.38;;;21.10;70.80;;;;;;5016800;28;20741;-62
2022/08/13 00:15:35;;;;;;;5.35;2.60;;;21.00;71.60;;;;;;5017493;28;20647;-60
2022/08/13 00:18:07;;;;;;;5.03;2.77;;;20.90;72.10;;;;;;5025035;28;20623;-61
2022/08/13 00:20:38;;;;;;;4.18;2.63;;;20.90;72.30;;;;;;5013497;28;20646;-60
2022/08/13 00:23:08;;;;;;;4.82;2.60;;;21.00;72.50;;;;;;5026574;28;20242;-60
2022/08/13 00:25:35;;;;;;;5.83;2.67;;;21.00;72.90;;;;;;5026819;28;20664;-60
2022/08/13 00:28:02;;;;;;;3.15;2.53;;;21.00;73.00;;;;;;5026557;28;20187;-60
2022/08/13 00:30:31;;;;;;;3.00;2.60;;;21.00;73.30;;;;;;5026526;28;20711;-60
2022/08/13 00:32:59;;;;;;;4.28;2.30;;;21.10;73.30;;;;;;5026308;28;20730;-60
2022/08/13 00:35:25;;;;;;;3.28;2.40;;;21.10;73.30;;;;;;5026618;28;20183;-60
2022/08/13 00:37:50;;;;;;;4.10;2.47;;;21.10;73.40;;;;;;5026300;28;20188;-60
2022/08/13 00:40:17;;;;;;;2.43;2.23;;;21.10;73.80;;;;;;5026332;28;20183;-60
2022/08/13 00:42:43;;;;;;;5.28;2.50;;;21.00;74.20;;;;;;5026427;28;20567;-60
2022/08/13 00:45:09;;;;;;;3.37;2.30;;;20.90;74.70;;;;;;5026367;28;20582;-60
2022/08/13 00:50:20;;;;;;;9.33;2.80;;;20.80;76.20;;;;;;5026143;28;20494;-60
2022/08/13 00:52:49;;;;;;;3.00;2.20;;;20.70;76.90;;;;;;5026529;28;20202;-64
2022/08/13 00:55:17;;;;;;;2.93;2.30;;;20.70;77.40;;;;;;5026396;28;20186;-61
2022/08/13 00:57:45;;;;;;;3.00;2.58;;;20.70;78.10;;;;;;5025987;28;20244;-60
2022/08/13 01:00:15;;;;;;;4.15;2.70;;;20.60;79.00;;;;;;5026095;28;20706;-60
2022/08/13 01:02:42;;;;;;;4.27;2.47;;;20.50;79.80;;;;;;5026309;28;20199;-60
2022/08/13 01:05:09;;;;;;;8.53;2.57;;;20.60;80.70;;;;;;5016604;28;20207;-60
2022/08/13 01:07:37;;;;;;;7.07;2.90;;;20.50;81.00;;;;;;5017438;28;20223;-60
2022/08/13 01:10:04;;;;;;;2.63;2.43;;;20.50;81.40;;;;;;5031903;28;20264;-60
2022/08/13 01:12:30;;;;;;;3.92;2.38;;;20.40;81.70;;;;;;5009557;28;20199;-60
2022/08/13 01:14:57;;;;;;;8.60;3.42;;;20.40;82.30;;;;;;5036497;28;20313;-60
2022/08/13 01:17:23;;;;;;;3.43;2.70;;;20.40;83.10;;;;;;5017080;28;20183;-60
2022/08/13 01:19:53;;;;;;;3.13;2.60;;;20.30;83.60;;;;;;5038435;28;20204;-61
2022/08/13 01:22:20;;;;;;;3.43;2.73;;;20.30;84.20;;;;;;5009070;28;20259;-61
2022/08/13 01:24:45;;;;;;;4.07;2.73;;;20.30;84.60;;;;;;5038317;28;20206;-60
2022/08/13 01:27:13;;;;;;;6.10;2.50;;;20.20;85.20;;;;;;5017422;28;20188;-61
2022/08/13 01:29:39;;;;;;;4.03;2.40;;;20.20;85.70;;;;;;5027369;28;20333;-61
2022/08/13 01:32:05;;;;;;;2.43;2.20;;;20.20;86.40;;;;;;5016096;28;20281;-61
2022/08/13 01:34:32;;;;;;;2.83;2.60;;;20.20;87.40;;;;;;5026251;28;20195;-62
2022/08/13 01:36:58;;;;;;;5.20;2.67;;;20.10;88.40;;;;;;5012257;28;20569;-61
2022/08/13 01:39:25;;;;;;;4.00;2.90;;;20.00;89.20;;;;;;5032248;28;20459;-63
2022/08/13 01:41:51;;;;;;;3.30;2.60;;;20.00;89.70;;;;;;5014007;28;20190;-61
2022/08/13 01:50:31;;;;;;;2.47;2.20;;;20.00;90.50;;;;;;5020033;28;20226;-61
2022/08/13 01:53:11;;;;;;;4.43;3.10;;;20.00;91.00;;;;;;5013827;28;20612;-61
2022/08/13 01:55:42;;;;;;;3.13;2.83;;;20.00;91.20;;;;;;5019489;28;20203;-61
2022/08/13 01:58:12;;;;;;;5.33;2.97;;;20.00;91.60;;;;;;5040483;28;20196;-61
2022/08/13 02:00:39;;;;;;;5.63;2.93;;;20.00;91.90;;;;;;5026989;28;21037;-61
2022/08/13 02:03:11;;;;;;;3.10;2.80;;;19.90;92.20;;;;;;5032196;28;20201;-61
2022/08/13 02:05:38;;;;;;;2.47;2.27;;;19.80;92.70;;;;;;5017824;28;20288;-62
2022/08/13 02:08:08;;;;;;;4.13;2.93;;;19.80;93.00;;;;;;5041204;28;20199;-61
2022/08/13 02:10:42;;;;;;;3.10;2.53;;;19.90;93.10;;;;;;5015534;28;20204;-61
2022/08/13 02:13:17;;;;;;;4.23;2.73;;;19.80;93.50;;;;;;5027536;28;20291;-61
2022/08/13 02:15:46;;;;;;;3.17;2.93;;;19.80;93.80;;;;;;5019560;28;20200;-62
2022/08/13 02:18:17;;;;;;;3.87;2.47;;;19.70;94.20;;;;;;5031224;28;20273;-62
2022/08/13 02:20:44;;;;;;;3.17;2.87;;;19.70;94.40;;;;;;5017303;28;20207;-61
2022/08/13 02:23:14;;;;;;;2.87;2.67;;;19.70;94.80;;;;;;5029765;28;20714;-60
2022/08/13 02:25:41;;;;;;;3.23;2.90;;;19.70;95.10;;;;;;5027302;28;20259;-60
2022/08/13 02:28:09;;;;;;;3.77;2.67;;;19.70;95.30;;;;;;5029832;28;20521;-61
2022/08/13 02:33:54;;;;;;;6.33;2.77;;;19.60;96.00;;;;;;5326880;22;20284;-61
2022/08/13 02:36:22;;;;;;;3.80;2.60;;;19.60;96.00;;;;;;4985266;28;20308;-61
2022/08/13 02:39:00;;;;;;;3.27;2.90;;;19.60;96.20;;;;;;4988819;28;20177;-61
2022/08/13 02:41:38;;;;;;;4.17;2.80;;;19.60;96.30;;;;;;4968832;28;20185;-61
2022/08/13 02:44:10;;;;;;;3.40;2.80;;;19.50;96.80;;;;;;4969732;28;20170;-61
2022/08/13 02:46:40;;;;;;;4.07;2.60;;;19.50;96.90;;;;;;4989615;28;20168;-61
2022/08/13 02:49:06;;;;;;;4.47;2.80;;;19.50;97.10;;;;;;4989276;28;20203;-62
2022/08/13 02:51:32;;;;;;;5.00;2.50;;;19.50;97.40;;;;;;4968304;28;20300;-62
2022/08/13 02:54:00;;;;;;;7.33;2.87;;;19.50;97.60;;;;;;4969484;28;20169;-61
2022/08/13 02:56:27;;;;;;;2.83;2.63;;;19.50;97.80;;;;;;4986267;28;20201;-62
2022/08/13 02:58:55;;;;;;;2.43;2.20;;;19.50;98.00;;;;;;4989119;28;20386;-62
2022/08/13 03:01:22;;;;;;;3.17;2.50;;;19.50;98.20;;;;;;4969929;28;20209;-62
2022/08/13 03:03:47;;;;;;;3.53;2.33;;;19.50;98.20;;;;;;4969443;28;20186;-62
2022/08/13 03:06:13;;;;;;;6.37;2.57;;;19.40;98.60;;;;;;4983575;28;20720;-61
2022/08/13 03:08:39;;;;;;;2.80;2.60;;;19.40;98.90;;;;;;4988571;28;20371;-61
2022/08/13 03:11:05;;;;;;;3.70;2.90;;;19.30;99.40;;;;;;4970781;28;20279;-61
2022/08/13 03:13:34;;;;;;;5.67;2.97;;;19.30;99.40;;;;;;4969584;28;20189;-62
2022/08/13 03:16:00;;;;;;;2.87;2.50;;;19.30;99.80;;;;;;4981213;28;20276;-60
2022/08/13 03:18:26;;;;;;;3.57;3.27;;;19.30;99.90;;;;;;4988495;28;20180;-61
2022/08/13 03:20:52;;;;;;;3.00;2.67;;;19.20;99.90;;;;;;4973772;28;20207;-62
2022/08/13 03:23:18;;;;;;;8.80;2.90;;;19.20;99.90;;;;;;4968849;28;20556;-62
2022/08/13 03:25:45;;;;;;;4.67;2.90;;;19.20;99.90;;;;;;4978971;28;20207;-62
2022/08/13 03:28:10;;;;;;;6.40;3.07;;;19.10;99.90;;;;;;4987019;28;20192;-61
2022/08/13 03:30:36;;;;;;;3.10;2.80;;;19.20;99.90;;;;;;4982948;28;20192;-61
2022/08/13 03:33:11;;;;;;;8.90;3.07;;;19.20;99.90;;;;;;4975930;28;20695;-61
2022/08/13 03:35:37;;;;;;;3.83;2.60;;;19.20;99.90;;;;;;4964882;28;20288;-61
2022/08/13 03:38:06;;;;;;;6.63;3.33;;;19.20;99.90;;;;;;4971788;28;20276;-61
2022/08/13 03:43:17;;;;;;;4.47;2.70;;;19.20;99.90;;;;;;4958741;28;20267;-62
2022/08/13 03:45:44;;;;;;;3.40;2.70;;;19.20;99.90;;;;;;4963551;28;20687;-62
2022/08/13 03:48:10;;;;;;;4.17;3.03;;;19.20;99.90;;;;;;4970492;28;20599;-62
2022/08/13 03:50:36;;;;;;;4.00;2.60;;;19.20;99.90;;;;;;4970187;28;20218;-62
2022/08/13 03:53:04;;;;;;;6.07;3.10;;;19.10;99.90;;;;;;4986415;28;20778;-62
2022/08/13 03:55:30;;;;;;;6.17;3.50;;;19.10;99.90;;;;;;4966822;28;20574;-62
2022/08/13 03:57:57;;;;;;;4.37;2.93;;;19.20;99.90;;;;;;4973305;28;20197;-62
2022/08/13 04:00:24;;;;;;;8.20;2.67;;;19.10;99.90;;;;;;4961292;28;20214;-62
2022/08/13 04:02:51;;;;;;;4.77;3.33;;;19.20;99.90;;;;;;4966682;28;20210;-62
2022/08/13 04:05:17;;;;;;;4.17;2.93;;;19.20;99.90;;;;;;4971605;28;20581;-62
2022/08/13 04:07:43;;;;;;;3.47;2.87;;;19.20;99.90;;;;;;4952476;28;20185;-62
2022/08/13 04:10:09;;;;;;;3.00;2.80;;;19.20;99.90;;;;;;4976811;28;20697;-61
2022/08/13 04:12:36;;;;;;;3.83;3.13;;;19.20;99.90;;;;;;4957062;28;20194;-61
2022/08/13 04:15:02;;;;;;;6.53;3.17;;;19.10;99.90;;;;;;4965150;28;20253;-61
2022/08/13 04:17:29;;;;;;;3.33;3.03;;;19.10;99.90;;;;;;4954088;28;20279;-61
2022/08/13 04:19:57;;;;;;;3.83;2.73;;;19.10;99.90;;;;;;4975315;28;20219;-61
2022/08/13 04:22:23;;;;;;;3.93;3.07;;;19.20;99.90;;;;;;4952794;28;20258;-62
2022/08/13 04:24:50;;;;;;;3.63;3.03;;;19.10;99.90;;;;;;4975670;28;23501;-62
2022/08/13 04:27:15;;;;;;;3.20;2.90;;;19.20;99.90;;;;;;4951650;28;20556;-62
2022/08/13 04:29:41;;;;;;;3.37;3.07;;;19.20;99.90;;;;;;4980917;28;20205;-62
2022/08/13 04:32:06;;;;;;;5.60;3.10;;;19.20;99.90;;;;;;4963207;28;20218;-61
2022/08/13 04:34:31;;;;;;;3.20;2.90;;;19.20;99.90;;;;;;4978844;28;20304;-62
2022/08/13 04:36:57;;;;;;;3.87;2.73;;;19.20;99.90;;;;;;4954003;28;20332;-61
2022/08/13 04:39:24;;;;;;;4.10;3.10;;;19.20;99.90;;;;;;4972846;28;20205;-61
2022/08/13 04:41:50;;;;;;;3.33;3.10;;;19.20;99.90;;;;;;4957110;28;20208;-62
2022/08/13 04:44:16;;;;;;;6.30;2.97;;;19.20;99.90;;;;;;4977287;28;20647;-62
2022/08/13 04:46:41;;;;;;;4.17;3.03;;;19.20;99.90;;;;;;4953722;28;20220;-61
2022/08/13 04:49:07;;;;;;;5.27;3.03;;;19.20;99.90;;;;;;4978546;28;20634;-61
2022/08/13 04:51:36;;;;;;;3.33;2.90;;;19.20;99.90;;;;;;4955112;28;20690;-61
2022/08/13 04:54:02;;;;;;;3.80;3.50;;;19.20;99.90;;;;;;4975012;28;20245;-61
2022/08/13 04:56:29;;;;;;;6.17;3.03;;;19.20;99.90;;;;;;4959741;28;20212;-61
2022/08/13 04:58:55;;;;;;;3.43;3.13;;;19.20;99.90;;;;;;4976374;28;20352;-61
2022/08/13 05:01:22;;;;;;;3.30;3.00;;;19.20;99.90;;;;;;4952914;28;20263;-61
2022/08/13 05:03:48;;;;;;;3.70;2.90;;;19.20;99.90;;;;;;4972623;28;20383;-61
2022/08/13 05:06:19;;;;;;;9.37;3.43;;;19.20;99.90;;;;;;4954996;28;20547;-60
2022/08/13 05:08:45;;;;;;;5.37;3.30;;;19.20;99.90;;;;;;4966942;28;20219;-61
2022/08/13 05:11:12;;;;;;;3.57;3.17;;;19.20;99.90;;;;;;4962935;28;20202;-61
2022/08/13 05:13:38;;;;;;;4.53;2.70;;;19.30;99.90;;;;;;4978562;28;20694;-61
2022/08/13 05:16:09;;;;;;;7.40;3.50;;;19.30;99.90;;;;;;4958170;28;20193;-61
2022/08/13 05:18:37;;;;;;;4.23;3.20;;;19.40;99.90;;;;;;4964437;28;20209;-61
2022/08/13 05:21:05;;;;;;;5.53;3.57;;;19.50;99.90;;;;;;4961617;28;20729;-61
2022/08/13 05:23:33;;;;;;;5.40;3.57;;;19.60;99.90;;;;;;4979189;28;20306;-62
2022/08/13 05:25:59;;;;;;;3.37;3.07;;;19.70;99.90;;;;;;4963480;28;20297;-61
2022/08/13 05:28:25;;;;;;;4.17;3.00;;;19.80;99.90;;;;;;4971723;28;20205;-61
2022/08/13 05:30:51;;;;;;;3.70;2.90;;;19.80;99.90;;;;;;4968088;28;20198;-61
2022/08/13 05:33:24;;;;;;;5.80;3.00;;;20.00;99.90;;;;;;4977047;28;20197;-61
2022/08/13 05:35:53;;;;;;;3.67;3.17;;;20.00;99.90;;;;;;4958036;28;20233;-61
2022/08/13 05:38:23;;;;;;;6.30;3.17;;;20.20;99.90;;;;;;4980970;28;20201;-61
2022/08/13 05:40:50;;;;;;;6.97;3.23;;;20.20;99.90;;;;;;4963964;28;20570;-61
2022/08/13 05:43:18;;;;;;;3.13;2.80;;;20.30;99.90;;;;;;4967837;28;20200;-61
2022/08/13 05:45:48;;;;;;;6.17;3.40;;;20.40;99.90;;;;;;4967907;28;20198;-60
2022/08/13 05:48:13;;;;;;;3.10;2.90;;;20.40;99.90;;;;;;4969053;28;20197;-62
2022/08/13 05:50:39;;;;;;;6.70;3.67;;;20.50;99.90;;;;;;4968954;28;20198;-62
2022/08/13 05:53:07;;;;;;;3.77;3.30;;;20.60;99.90;;;;;;4949738;28;20872;-61
2022/08/13 05:55:33;;;;;;;4.53;3.27;;;20.80;99.90;;;;;;4976497;28;20263;-62
2022/08/13 05:57:59;;;;;;;3.22;2.92;;;21.00;99.80;;;;;;4956510;28;20265;-61
2022/08/13 06:03:27;;;;;;;5.60;2.58;;;21.50;98.80;;;;;;4954477;28;20192;-62
2022/08/13 06:06:22;;;;;;;4.90;3.28;;;21.80;98.30;;;;;;4964578;28;20220;-61
2022/08/13 06:08:48;;;;;;;5.60;3.65;;;22.10;97.80;;;;;;4948774;28;20254;-62
2022/08/13 06:11:17;;;;;;;2.90;2.70;;;22.10;97.50;;;;;;4958924;28;20765;-61
2022/08/13 06:13:44;;;;;;;4.40;3.43;;;22.40;97.60;;;;;;4969090;28;20257;-62
2022/08/13 06:16:12;;;;;;;3.90;3.60;;;22.50;97.10;;;;;;4970791;28;20345;-62
2022/08/13 06:18:43;;;;;;;4.75;3.38;;;22.70;96.80;;;;;;4984941;28;20212;-62
2022/08/13 06:21:11;;;;;;;5.15;2.72;;;22.80;96.40;;;;;;4964742;28;20240;-62
2022/08/13 06:23:38;;;;;;;5.82;3.45;;;22.80;96.40;;;;;;4969847;28;20649;-63
2022/08/13 06:26:06;;;;;;;3.30;3.00;;;22.80;96.50;;;;;;4955041;28;20761;-62
2022/08/13 06:28:33;;;;;;;4.20;3.20;;;22.80;96.30;;;;;;4985047;28;20672;-62
2022/08/13 06:31:02;;;;;;;4.72;3.35;;;22.90;96.40;;;;;;4956001;28;20865;-62
2022/08/13 06:33:29;;;;;;;3.92;3.55;;;22.90;96.30;;;;;;4964868;28;20213;-62
2022/08/13 06:35:58;;;;;;;5.70;3.67;;;23.00;96.30;;;;;;4972311;28;20232;-62
2022/08/13 06:38:30;;;;;;;8.38;3.22;;;23.00;95.90;;;;;;4979702;28;20202;-62
2022/08/13 06:40:59;;;;;;;4.93;3.50;;;23.10;95.90;;;;;;4971432;28;20210;-61
2022/08/13 06:43:36;;;;;;;3.50;3.25;;;23.20;95.80;;;;;;4983983;28;20756;-61
2022/08/13 06:46:05;;;;;;;7.03;3.10;;;23.30;95.50;;;;;;4958023;28;20211;-61
2022/08/13 06:48:32;;;;;;;3.15;2.85;;;23.30;95.20;;;;;;4960576;28;20577;-62
2022/08/13 06:50:58;;;;;;;4.15;3.70;;;23.30;95.40;;;;;;4960715;28;20199;-62
2022/08/13 06:53:23;;;;;;;7.43;3.03;;;23.40;95.50;;;;;;4972624;28;20240;-62
2022/08/13 06:55:50;;;;;;;4.93;3.55;;;23.50;95.20;;;;;;4962702;28;20307;-61
2022/08/13 06:58:18;;;;;;;3.75;3.45;;;23.60;95.60;;;;;;4961483;28;20226;-62
2022/08/13 07:00:44;;;;;;;4.25;3.55;;;23.70;95.10;;;;;;4977810;28;20635;-62
2022/08/13 07:03:10;;;;;;;4.90;3.30;;;23.80;95.10;;;;;;4953773;28;20275;-61
2022/08/13 07:05:38;;;;;;;8.40;3.38;;;23.90;94.90;;;;;;4978016;28;20299;-61
2022/08/13 07:08:06;;;;;;;3.25;3.05;;;24.00;94.60;;;;;;4957070;28;20211;-62
2022/08/13 07:10:33;;;;;;;3.40;3.15;;;24.10;94.30;;;;;;4978993;28;20384;-63
2022/08/13 07:13:00;;;;;;;5.60;3.22;;;24.20;93.90;;;;;;4958209;28;20280;-63
2022/08/13 07:15:26;;;;;;;3.80;3.30;;;24.20;93.70;;;;;;4982889;28;20228;-63
2022/08/13 07:17:55;;;;;;;3.33;3.03;;;24.40;94.00;;;;;;4955237;28;20217;-66
2022/08/13 07:20:21;;;;;;;3.10;2.90;;;24.60;93.40;;;;;;4966121;28;20232;-68
2022/08/13 07:22:47;;;;;;;5.32;3.13;;;24.70;93.00;;;;;;4956583;28;20616;-64
2022/08/13 07:25:13;;;;;;;3.85;3.05;;;24.90;92.50;;;;;;4981560;28;20649;-64
2022/08/13 07:27:40;;;;;;;4.43;3.67;;;25.00;92.20;;;;;;4968973;28;20170;-65
2022/08/13 07:30:07;;;;;;;4.03;3.38;;;25.00;91.90;;;;;;4981394;28;20236;-65
2022/08/13 07:32:37;;;;;;;3.70;3.40;;;25.10;91.90;;;;;;4959752;28;20241;-65
2022/08/13 07:35:03;;;;;;;4.72;3.50;;;25.10;91.50;;;;;;4980491;28;20232;-65
2022/08/13 07:37:28;;;;;;;7.15;3.30;;;25.00;91.90;;;;;;4956769;28;20572;-64
2022/08/13 07:39:55;;;;;;;3.53;3.13;;;25.00;91.40;;;;;;4973403;28;20204;-65
2022/08/13 07:42:22;;;;;;;4.25;3.33;;;25.10;91.40;;;;;;4960011;28;20212;-65
2022/08/13 07:44:52;;;;;;;6.20;3.40;;;25.30;91.20;;;;;;4970823;28;20288;-64
2022/08/13 07:47:19;;;;;;;3.55;3.03;;;25.60;90.70;;;;;;4951805;28;20288;-64
2022/08/13 07:49:46;;;;;;;13.90;3.75;;;25.70;90.40;;;;;;4982706;28;20220;-65
2022/08/13 07:52:13;;;;;;;5.28;3.33;;;25.90;90.20;;;;;;4961197;28;20213;-64
2022/08/13 07:54:41;;;;;;;3.65;3.35;;;25.90;89.80;;;;;;4975051;28;20194;-65
2022/08/13 07:57:09;;;;;;;3.55;3.25;;;26.00;89.60;;;;;;4965967;28;20206;-65
2022/08/13 07:59:36;;;;;;;3.00;2.80;;;26.00;89.00;;;;;;4979296;28;20201;-65
2022/08/13 08:02:02;;;;;;;3.50;3.22;;;26.00;88.80;;;;;;4966731;28;20212;-65
2022/08/13 08:04:30;;;;;;;4.00;3.25;;;26.20;88.80;;;;;;4975568;28;20260;-65
2022/08/13 08:06:57;;;;;;;5.43;3.35;;;26.20;88.20;;;;;;4963078;28;20592;-65
2022/08/13 08:09:27;;;;;;;5.30;3.30;;;25.90;89.20;;;;;;4980899;28;20221;-65
2022/08/13 08:14:38;;;;;;;3.85;3.20;;;25.90;88.50;;;;;;4960240;28;20572;-65
2022/08/13 08:17:05;;;;;;;3.92;3.35;;;25.80;89.00;;;;;;4954958;28;20636;-65
2022/08/13 08:19:32;;;;;;;4.05;3.40;;;25.90;89.20;;;;;;4966990;28;20719;-65
2022/08/13 08:22:03;;;;;;;5.22;3.15;;;25.90;89.40;;;;;;4968657;28;20215;-64
2022/08/13 08:24:32;;;;;;;5.20;3.42;;;25.90;89.10;;;;;;4979917;28;20195;-65
2022/08/13 08:27:04;;;;;;;8.88;3.22;;;26.10;90.30;;;;;;4957724;28;20260;-65
2022/08/13 08:29:31;;;;;;;3.22;2.90;;;26.10;90.00;;;;;;4947741;28;20210;-64
2022/08/13 08:31:59;;;;;;;3.47;3.03;;;26.30;90.50;;;;;;4980483;28;20207;-64
2022/08/13 08:34:25;;;;;;;3.10;2.90;;;26.30;90.40;;;;;;4970201;28;20215;-64
2022/08/13 08:36:55;;;;;;;5.57;3.22;;;26.30;89.00;;;;;;4954430;28;20365;-64
2022/08/13 08:42:35;;;;;;;3.50;3.20;;;26.20;90.70;;;;;;4948818;28;20236;-63
2022/08/13 08:44:59;;;;;;;5.50;3.25;;;26.20;92.00;;;;;;4967085;28;20196;-64
2022/08/13 08:47:30;;;;;;;5.47;3.35;;;26.10;91.60;;;;;;4951620;28;20202;-64
2022/08/13 08:49:58;;;;;;;3.10;2.88;;;26.10;90.00;;;;;;4976160;28;20217;-63
2022/08/13 08:55:11;;;;;;;5.53;4.00;;;26.40;90.30;;;;;;4967483;28;20256;-62
2022/08/13 08:57:39;;;;;;;9.75;3.25;;;26.60;88.00;;;;;;4948279;28;20199;-64
2022/08/13 09:00:05;;;;;;;3.20;3.00;;;26.70;87.00;;;;;;4978576;28;20201;-64
2022/08/13 09:02:33;;;;;;;3.25;2.78;;;26.90;90.70;;;;;;4958159;28;20206;-64
2022/08/13 09:05:02;;;;;;;4.63;3.10;;;27.10;90.50;;;;;;4975531;28;20664;-65
2022/08/13 09:07:29;;;;;;;4.78;3.10;;;27.30;90.30;;;;;;4969237;28;20197;-65
2022/08/13 09:09:56;;;;;;;3.05;2.75;;;27.50;85.50;;;;;;4975340;28;20209;-64
2022/08/13 09:12:25;;;;;;;4.07;3.35;;;27.70;84.20;;;;;;4953319;28;20577;-64
2022/08/13 09:14:52;;;;;;;5.32;3.50;;;28.00;83.90;;;;;;4976115;28;20205;-64
2022/08/13 09:17:19;;;;;;;6.22;4.00;;;28.10;81.60;;;;;;4950819;28;20624;-65
2022/08/13 09:19:45;;;;;;;5.28;3.30;;;28.20;81.60;;;;;;4972299;28;20676;-70
2022/08/13 09:22:14;;;;;;;4.22;3.85;;;28.50;80.30;;;;;;4954434;28;20253;-68
2022/08/13 09:24:45;;;;;;;4.60;4.15;;;28.60;79.40;;;;;;4985578;28;20193;-63
2022/08/13 09:27:15;;;;;;;4.13;3.65;;;28.90;85.50;;;;;;4977555;28;20651;-63
2022/08/13 09:29:42;;;;;;;3.92;3.63;;;29.10;80.50;;;;;;4974487;28;20646;-62
2022/08/13 09:32:09;;;;;;;5.47;4.20;;;29.20;76.90;;;;;;4970770;28;20198;-63
2022/08/13 09:34:37;;;;;;;5.13;3.90;;;29.30;76.20;;;;;;4976624;28;20224;-62
2022/08/13 09:37:03;;;;;;;5.90;3.88;;;29.50;77.80;;;;;;4970096;28;20426;-63
2022/08/13 09:39:35;;;;;;;4.07;3.80;;;29.70;75.90;;;;;;4975412;28;20200;-63
2022/08/13 09:42:07;;;;;;;4.60;4.20;;;29.90;75.20;;;;;;4973620;28;20204;-63
2022/08/13 09:44:37;;;;;;;7.03;4.78;;;30.00;75.80;;;;;;4953446;28;20673;-69
2022/08/13 09:47:03;;;;;;;4.65;4.22;;;30.20;77.10;;;;;;4957889;28;20209;-63
2022/08/13 09:49:29;;;;;;;5.10;4.72;;;30.30;77.00;;;;;;4964061;28;20272;-63
2022/08/13 09:51:55;;;;;;;5.18;4.68;;;30.40;73.30;;;;;;4961411;28;20206;-63
2022/08/13 09:54:22;;;;;;;5.85;4.78;;;30.30;73.20;;;;;;4965972;28;20680;-64
2022/08/13 09:56:47;;;;;;;5.90;4.32;;;30.20;74.10;;;;;;4961700;28;20204;-70
2022/08/13 09:59:13;;;;;;;6.65;4.70;;;30.00;76.10;;;;;;4979866;28;20273;-63
2022/08/13 10:01:39;;;;;;;4.55;4.25;;;30.00;76.60;;;;;;4968596;28;20209;-63
2022/08/13 10:04:04;;;;;;;5.05;4.65;;;29.70;78.30;;;;;;4980732;28;20194;-64
2022/08/13 10:06:32;;;;;;;4.65;4.30;;;29.30;73.90;;;;;;4968328;28;20706;-66
2022/08/13 10:09:00;;;;;;;6.78;4.63;;;29.20;74.80;;;;;;4949847;28;20625;-63
2022/08/13 10:11:26;;;;;;;8.73;4.38;;;29.20;74.70;;;;;;4970399;28;20221;-63
2022/08/13 10:13:54;;;;;;;6.15;4.57;;;29.20;75.10;;;;;;4958565;28;20924;-64
2022/08/13 10:16:20;;;;;;;4.13;3.80;;;29.30;74.60;;;;;;4968479;28;20668;-63
2022/08/13 10:18:46;;;;;;;4.70;4.07;;;29.40;73.70;;;;;;4950365;28;20196;-64
2022/08/13 10:21:12;;;;;;;4.60;4.20;;;29.30;73.70;;;;;;4982970;28;20288;-67
2022/08/13 10:23:37;;;;;;;4.50;4.10;;;29.40;74.90;;;;;;4978817;28;20192;-64
2022/08/13 10:26:03;;;;;;;4.65;4.35;;;29.40;73.30;;;;;;4974491;28;20198;-66
2022/08/13 10:28:31;;;;;;;6.20;3.67;;;29.40;78.00;;;;;;4975038;28;20276;-67
2022/08/13 10:31:08;;;;;;;4.18;3.78;;;29.30;73.30;;;;;;4973064;28;20587;-66
2022/08/13 10:33:34;;;;;;;4.65;4.00;;;29.20;73.40;;;;;;4973317;28;20209;-67
2022/08/13 10:36:00;;;;;;;5.97;4.03;;;29.00;73.90;;;;;;4977493;28;20263;-65
2022/08/13 10:38:26;;;;;;;4.47;4.07;;;28.70;75.80;;;;;;4978289;28;20216;-65
2022/08/13 10:41:10;;;;;;;4.45;3.88;;;28.50;76.00;;;;;;4977850;28;20185;-65
2022/08/13 10:43:40;;;;;;;4.45;4.07;;;28.40;79.70;;;;;;4971684;28;20662;-65
2022/08/13 10:46:11;;;;;;;4.25;3.95;;;28.40;75.80;;;;;;4977795;28;20200;-65
2022/08/13 10:48:37;;;;;;;4.10;3.80;;;28.50;76.70;;;;;;4975210;28;20193;-65
2022/08/13 10:51:03;;;;;;;3.97;3.67;;;28.70;76.20;;;;;;4973106;28;20296;-65
2022/08/13 10:56:13;;;;;;;6.75;4.13;;;29.20;75.10;;;;;;4973843;28;20213;-66
2022/08/13 10:58:39;;;;;;;4.90;4.30;;;28.80;75.00;;;;;;4977727;28;20185;-65
2022/08/13 11:01:05;;;;;;;5.00;3.50;;;28.50;76.70;;;;;;4966719;28;20476;-66
2022/08/13 11:03:31;;;;;;;7.65;3.60;;;28.40;78.60;;;;;;4957584;28;20977;-66
2022/08/13 11:06:00;;;;;;;3.88;3.47;;;28.40;79.30;;;;;;4954240;28;20244;-69
2022/08/13 11:08:26;;;;;;;4.13;3.70;;;28.20;78.70;;;;;;4954913;28;20186;-64
2022/08/13 11:10:52;;;;;;;3.35;3.08;;;28.00;79.00;;;;;;4958008;28;20194;-65
2022/08/13 11:13:17;;;;;;;3.70;3.42;;;27.70;80.50;;;;;;4957016;28;20205;-63
2022/08/13 11:15:42;;;;;;;3.10;2.92;;;27.40;80.80;;;;;;4958233;28;20194;-62
2022/08/13 11:18:09;;;;;;;3.50;3.13;;;27.30;81.60;;;;;;4967299;28;20510;-62
2022/08/13 11:21:02;;;;;;;3.15;2.95;;;27.30;81.40;;;;;;4978385;28;20586;-64
2022/08/13 11:23:20;;;;;;;4.15;3.75;;;27.20;82.90;;;;;;4973224;28;20198;-63
2022/08/13 11:25:46;;;;;;;3.72;3.42;;;27.20;81.60;;;;;;4977914;28;20192;-64
2022/08/13 11:28:12;;;;;;;3.85;3.55;;;27.10;81.70;;;;;;4962590;28;20680;-64
2022/08/13 11:30:38;;;;;;;4.40;3.95;;;27.10;81.60;;;;;;4970842;28;20222;-64
2022/08/13 11:33:07;;;;;;;4.30;3.47;;;27.20;82.30;;;;;;4959425;28;20273;-64
2022/08/13 11:35:34;;;;;;;3.47;3.28;;;27.20;81.60;;;;;;4974980;28;20762;-64
2022/08/13 11:38:08;;;;;;;7.90;4.57;;;27.40;82.00;;;;;;4963761;28;20201;-64
2022/08/13 11:40:34;;;;;;;4.40;4.10;;;27.50;81.80;;;;;;4974244;28;20275;-64
2022/08/13 11:43:00;;;;;;;4.07;3.78;;;27.50;80.70;;;;;;4974705;28;20303;-64
2022/08/13 11:45:26;;;;;;;3.60;3.40;;;27.60;81.00;;;;;;4973994;28;20203;-65
2022/08/13 11:47:51;;;;;;;4.10;3.67;;;27.70;81.20;;;;;;4964618;28;20206;-64
2022/08/13 11:50:16;;;;;;;4.72;3.95;;;27.70;81.20;;;;;;4977134;28;20265;-64
2022/08/13 11:52:42;;;;;;;3.85;3.55;;;27.60;81.80;;;;;;4953292;28;20229;-63
2022/08/13 11:55:08;;;;;;;4.28;3.97;;;27.50;82.00;;;;;;4977434;28;20197;-63
2022/08/13 11:57:34;;;;;;;4.63;4.22;;;27.40;81.70;;;;;;4960037;28;20217;-63
2022/08/13 11:59:59;;;;;;;5.10;4.57;;;27.30;82.20;;;;;;4967844;28;20200;-63
2022/08/13 12:02:25;;;;;;;4.25;3.92;;;27.20;83.50;;;;;;4964719;28;20587;-64
2022/08/13 12:04:51;;;;;;;7.72;4.20;;;27.20;86.00;;;;;;4968292;28;20660;-63
2022/08/13 12:07:16;;;;;;;4.55;3.97;;;27.10;89.20;;;;;;4969129;28;20194;-63
2022/08/13 12:09:42;;;;;;;4.25;3.90;;;27.10;90.00;;;;;;4985867;28;20361;-63
2022/08/13 12:12:08;;;;;;;5.20;4.18;;;27.10;89.70;;;;;;4973125;28;20271;-62
2022/08/13 12:14:34;;;;;;;4.63;4.22;;;27.10;91.30;;;;;;4967825;28;20201;-69
2022/08/13 12:16:59;;;;;;;4.80;4.30;;;27.10;90.60;;;;;;4968380;28;20202;-71
2022/08/13 12:19:25;;;;;;;4.63;4.22;;;27.20;90.10;;;;;;4969623;28;20193;-63
2022/08/13 12:21:50;;;;;;;5.13;4.40;;;27.40;90.50;;;;;;4972198;28;20239;-63
2022/08/13 12:24:16;;;;;;;5.00;4.10;;;27.60;90.30;;;;;;4979122;28;20239;-63
2022/08/13 12:26:41;;;;;;;4.68;4.28;;;27.50;89.20;;;;;;4964495;28;20348;-63
2022/08/13 12:29:07;;;;;;;4.10;3.83;;;27.50;90.40;;;;;;4958522;28;20316;-64
2022/08/13 12:31:32;;;;;;;3.75;3.45;;;27.60;90.50;;;;;;4959390;28;20237;-64
2022/08/13 12:34:01;;;;;;;5.85;4.53;;;27.60;89.90;;;;;;4974639;28;20272;-69
2022/08/13 12:36:27;;;;;;;4.50;4.18;;;27.70;90.30;;;;;;4977604;28;20192;-63
2022/08/13 12:38:52;;;;;;;4.35;3.95;;;27.90;88.50;;;;;;4968935;28;20197;-65
2022/08/13 12:41:18;;;;;;;4.00;3.35;;;28.10;90.00;;;;;;4977169;28;20216;-62
2022/08/13 12:43:45;;;;;;;6.65;3.58;;;28.30;89.00;;;;;;4975598;28;20197;-67
2022/08/13 12:46:11;;;;;;;5.88;3.97;;;28.40;86.30;;;;;;4969588;28;20194;-63
2022/08/13 12:48:36;;;;;;;6.95;4.28;;;28.40;85.90;;;;;;4971683;28;20562;-63
2022/08/13 12:51:02;;;;;;;4.40;4.00;;;28.50;84.90;;;;;;4970538;28;20648;-64
2022/08/13 12:53:28;;;;;;;8.30;4.10;;;28.60;84.60;;;;;;4955929;28;20197;-64
2022/08/13 12:55:53;;;;;;;5.53;3.65;;;28.60;83.30;;;;;;4968390;28;20722;-65
2022/08/13 12:58:23;;;;;;;4.38;4.03;;;28.50;83.10;;;;;;4965637;28;20201;-67
2022/08/13 13:00:52;;;;;;;4.03;3.83;;;28.50;83.00;;;;;;4965551;28;20221;-67
2022/08/13 13:03:21;;;;;;;4.93;4.47;;;28.60;82.70;;;;;;4960156;28;20205;-65
2022/08/13 13:05:49;;;;;;;5.07;4.60;;;28.80;83.40;;;;;;4981219;28;20202;-65
2022/08/13 13:08:28;;;;;;;5.63;5.05;;;28.80;82.50;;;;;;4963588;28;20209;-65
2022/08/13 13:10:59;;;;;;;4.40;4.00;;;28.90;81.60;;;;;;4974592;28;20272;-64
2022/08/13 13:13:26;;;;;;;7.90;4.70;;;29.00;82.20;;;;;;4968567;28;20236;-65
2022/08/13 13:15:53;;;;;;;3.83;3.63;;;29.20;81.50;;;;;;4975664;28;20559;-65
2022/08/13 13:18:22;;;;;;;7.57;4.75;;;29.50;81.10;;;;;;4973199;28;20285;-64
2022/08/13 13:20:49;;;;;;;4.88;4.30;;;29.70;79.90;;;;;;4971586;28;20221;-65